createdAt,value
2022-09-24T00:01:51.736Z,1.63
2022-09-24T00:04:21.970Z,1.47
2022-09-24T00:06:49.894Z,1.10
2022-09-24T00:09:22.069Z,1.63
2022-09-24T00:11:51.464Z,1.47
2022-09-24T00:14:19.394Z,1.23
2022-09-24T00:16:47.669Z,1.27
2022-09-24T00:19:15.825Z,1.80
2022-09-24T00:21:45.097Z,1.17
2022-09-24T00:24:35.768Z,1.60
2022-09-24T00:27:04.439Z,1.00
2022-09-24T00:29:34.171Z,0.90
2022-09-24T00:32:04.710Z,1.50
2022-09-24T00:34:32.641Z,0.80
2022-09-24T00:37:01.933Z,1.50
2022-09-24T00:39:29.824Z,1.50
2022-09-24T00:41:57.752Z,0.70
2022-09-24T00:44:54.345Z,1.03
2022-09-24T00:47:32.493Z,1.17
2022-09-24T00:50:16.647Z,0.90
2022-09-24T00:52:51.028Z,1.10
2022-09-24T00:55:20.918Z,0.80
2022-09-24T00:57:52.123Z,1.10
2022-09-24T01:00:20.316Z,0.90
2022-09-24T01:02:50.129Z,1.57
2022-09-24T01:05:18.174Z,1.50
2022-09-24T01:07:48.213Z,1.40
2022-09-24T01:10:38.116Z,1.37
2022-09-24T01:13:15.687Z,1.23
2022-09-24T01:15:49.009Z,1.30
2022-09-24T01:18:26.304Z,1.10
2022-09-24T01:21:11.447Z,1.17
2022-09-24T01:24:16.099Z,1.40
2022-09-24T01:26:57.118Z,1.10
2022-09-24T01:29:32.610Z,1.43
2022-09-24T01:32:05.757Z,0.87
2022-09-24T01:34:39.971Z,1.00
2022-09-24T01:37:08.289Z,1.53
2022-09-24T01:39:38.893Z,1.07
2022-09-24T01:42:07.967Z,0.93
2022-09-24T01:44:39.775Z,1.20
2022-09-24T01:47:10.273Z,1.00
2022-09-24T01:49:38.164Z,0.97
2022-09-24T01:52:10.991Z,1.93
2022-09-24T01:54:42.801Z,1.27
2022-09-24T01:57:15.763Z,1.43
2022-09-24T01:59:49.843Z,0.83
2022-09-24T02:02:27.724Z,1.17
2022-09-24T02:05:01.904Z,1.33
2022-09-24T02:07:36.146Z,1.30
2022-09-24T02:10:04.346Z,0.87
2022-09-24T02:12:37.388Z,1.10
2022-09-24T02:15:11.424Z,1.30
2022-09-24T02:17:41.862Z,1.77
2022-09-24T02:20:14.444Z,1.37
2022-09-24T02:22:44.037Z,1.07
2022-09-24T02:25:16.737Z,1.03
2022-09-24T02:27:45.177Z,1.37
2022-09-24T02:30:14.987Z,1.30
2022-09-24T02:32:45.604Z,1.10
2022-09-24T02:35:13.186Z,1.80
2022-09-24T02:37:43.814Z,1.50
2022-09-24T02:40:14.652Z,1.30
2022-09-24T02:42:43.527Z,1.43
2022-09-24T02:45:12.956Z,1.50
2022-09-24T02:47:42.204Z,1.30
2022-09-24T02:50:10.726Z,1.20
2022-09-24T02:52:38.692Z,1.00
2022-09-24T02:55:07.128Z,2.30
2022-09-24T02:57:35.410Z,1.20
2022-09-24T03:00:03.677Z,1.57
2022-09-24T03:02:31.680Z,1.43
2022-09-24T03:05:01.013Z,1.37
2022-09-24T03:07:28.912Z,1.20
2022-09-24T03:09:57.747Z,1.10
2022-09-24T03:12:25.637Z,1.40
2022-09-24T03:14:53.546Z,1.10
2022-09-24T03:17:21.487Z,2.20
2022-09-24T03:19:49.500Z,1.27
2022-09-24T03:22:18.765Z,1.40
2022-09-24T03:24:46.782Z,1.60
2022-09-24T03:27:14.708Z,1.17
2022-09-24T03:30:00.228Z,1.30
2022-09-24T03:32:28.149Z,1.40
2022-09-24T03:34:56.044Z,1.10
2022-09-24T03:37:25.347Z,1.47
2022-09-24T03:39:53.258Z,1.43
2022-09-24T03:42:21.183Z,1.03
2022-09-24T03:44:49.110Z,1.50
2022-09-24T03:47:17.048Z,1.30
2022-09-24T03:49:44.958Z,1.40
2022-09-24T03:52:12.963Z,1.37
2022-09-24T03:54:42.257Z,1.50
2022-09-24T03:57:10.186Z,1.30
2022-09-24T03:59:38.113Z,2.00
2022-09-24T04:02:06.070Z,0.90
2022-09-24T04:04:34.031Z,1.73
2022-09-24T04:07:01.959Z,0.83
2022-09-24T04:09:29.862Z,1.87
2022-09-24T04:11:59.429Z,1.33
2022-09-24T04:14:27.343Z,1.47
2022-09-24T04:16:55.238Z,1.27
2022-09-24T04:19:23.150Z,1.80
2022-09-24T04:21:51.127Z,1.40
2022-09-24T04:24:19.284Z,1.40
2022-09-24T04:26:47.173Z,1.20
2022-09-24T04:29:16.639Z,1.40
2022-09-24T04:31:44.566Z,1.30
2022-09-24T04:34:12.662Z,1.30
2022-09-24T04:36:40.553Z,1.00
2022-09-24T04:39:08.447Z,1.50
2022-09-24T04:41:36.341Z,1.90
2022-09-24T04:44:05.242Z,1.20
2022-09-24T04:46:34.715Z,2.70
2022-09-24T04:49:02.752Z,2.67
2022-09-24T04:51:35.627Z,1.07
2022-09-24T04:54:03.854Z,2.23
2022-09-24T04:56:32.195Z,1.70
2022-09-24T04:59:00.216Z,2.70
2022-09-24T05:01:28.412Z,3.00
2022-09-24T05:03:57.730Z,2.20
2022-09-24T05:06:25.635Z,2.07
2022-09-24T05:08:53.540Z,2.33
2022-09-24T05:11:21.437Z,2.60
2022-09-24T05:13:49.325Z,3.20
2022-09-24T05:16:17.325Z,2.80
2022-09-24T05:18:45.238Z,3.93
2022-09-24T05:21:14.742Z,1.97
2022-09-24T05:23:42.673Z,3.03
2022-09-24T05:26:42.750Z,1.60
2022-09-24T05:29:11.085Z,2.43
2022-09-24T05:31:39.119Z,2.53
2022-09-24T05:34:07.164Z,2.47
2022-09-24T05:36:36.606Z,1.70
2022-09-24T05:39:05.037Z,2.67
2022-09-24T05:41:32.977Z,2.33
2022-09-24T05:44:01.529Z,2.30
2022-09-24T05:46:30.092Z,2.97
2022-09-24T05:48:58.216Z,2.47
2022-09-24T05:51:26.233Z,1.40
2022-09-24T05:53:55.545Z,1.93
2022-09-24T05:56:23.440Z,2.50
2022-09-24T05:58:51.495Z,2.40
2022-09-24T06:01:19.405Z,2.87
2022-09-24T06:03:47.811Z,2.17
2022-09-24T06:06:15.759Z,1.60
2022-09-24T06:08:43.648Z,2.03
2022-09-24T06:11:13.171Z,2.93
2022-09-24T06:13:41.399Z,3.43
2022-09-24T06:16:11.728Z,2.77
2022-09-24T06:18:41.017Z,1.90
2022-09-24T06:21:11.194Z,2.87
2022-09-24T06:23:40.125Z,2.37
2022-09-24T06:26:11.375Z,3.13
2022-09-24T06:28:41.248Z,2.37
2022-09-24T06:31:11.862Z,2.33
2022-09-24T06:33:40.517Z,2.23
2022-09-24T06:36:09.080Z,2.87
2022-09-24T06:38:39.367Z,2.90
2022-09-24T06:41:08.136Z,2.87
2022-09-24T06:43:36.416Z,2.60
2022-09-24T06:46:05.827Z,1.47
2022-09-24T06:48:33.864Z,3.30
2022-09-24T06:51:01.774Z,2.67
2022-09-24T06:53:29.674Z,2.60
2022-09-24T06:55:59.559Z,6.20
2022-09-24T06:58:27.816Z,7.10
2022-09-24T07:00:58.913Z,6.90
2022-09-24T07:03:29.858Z,4.10
2022-09-24T07:06:00.738Z,3.30
2022-09-24T07:08:28.822Z,3.13
2022-09-24T07:10:56.975Z,3.33
2022-09-24T07:13:24.984Z,3.30
2022-09-24T07:15:53.540Z,3.30
2022-09-24T07:18:22.027Z,2.53
2022-09-24T07:20:55.121Z,2.60
2022-09-24T07:23:23.930Z,2.63
2022-09-24T07:25:56.479Z,3.20
2022-09-24T07:28:24.419Z,3.60
2022-09-24T07:30:58.579Z,3.10
2022-09-24T07:33:26.553Z,3.17
2022-09-24T07:35:55.796Z,2.60
2022-09-24T07:38:23.766Z,3.17
2022-09-24T07:40:51.939Z,2.97
2022-09-24T07:43:21.821Z,1.87
2022-09-24T07:45:49.721Z,2.27
2022-09-24T07:48:17.779Z,1.90
2022-09-24T07:50:45.668Z,2.87
2022-09-24T07:53:15.215Z,2.43
2022-09-24T07:55:44.655Z,1.53
2022-09-24T07:58:14.576Z,1.90
2022-09-24T08:00:43.116Z,2.60
2022-09-24T08:03:11.192Z,1.80
2022-09-24T08:05:44.212Z,1.90
2022-09-24T08:08:14.130Z,2.00
2022-09-24T08:10:43.042Z,2.10
2022-09-24T08:13:11.001Z,1.70
2022-09-24T08:15:39.005Z,2.17
2022-09-24T08:18:07.518Z,2.47
2022-09-24T08:20:37.197Z,3.07
2022-09-24T08:23:06.726Z,1.77
2022-09-24T08:25:35.998Z,2.10
2022-09-24T08:28:04.537Z,1.50
2022-09-24T08:30:33.336Z,2.00
2022-09-24T08:33:01.408Z,2.50
2022-09-24T08:35:29.314Z,2.40
2022-09-24T08:38:01.263Z,2.20
2022-09-24T08:40:32.395Z,2.57
2022-09-24T08:43:10.764Z,2.70
2022-09-24T08:46:02.634Z,2.20
2022-09-24T08:48:34.085Z,2.40
2022-09-24T08:51:06.630Z,2.10
2022-09-24T08:53:41.769Z,2.10
2022-09-24T08:56:10.850Z,2.73
2022-09-24T08:58:46.424Z,2.20
2022-09-24T09:01:22.212Z,1.77
2022-09-24T09:03:56.106Z,2.50
2022-09-24T09:06:50.432Z,2.83
2022-09-24T09:09:21.333Z,3.43
2022-09-24T09:11:52.767Z,2.43
2022-09-24T09:14:31.171Z,1.80
2022-09-24T09:17:02.648Z,1.93
2022-09-24T09:19:34.983Z,1.83
2022-09-24T09:22:07.884Z,2.77
2022-09-24T09:24:42.764Z,2.43
2022-09-24T09:27:15.207Z,1.80
2022-09-24T09:29:47.191Z,2.27
2022-09-24T09:32:28.511Z,2.77
2022-09-24T09:35:09.078Z,2.23
2022-09-24T09:37:44.528Z,1.90
2022-09-24T09:40:31.853Z,2.03
2022-09-24T09:43:02.941Z,2.57
2022-09-24T09:45:37.136Z,2.10
2022-09-24T09:48:09.645Z,2.00
2022-09-24T09:50:40.804Z,2.60
2022-09-24T09:53:20.956Z,2.50
2022-09-24T09:55:54.304Z,2.23
2022-09-24T09:58:24.749Z,2.10
2022-09-24T10:00:54.458Z,1.80
2022-09-24T10:03:25.419Z,2.13
2022-09-24T10:05:58.083Z,2.00
2022-09-24T10:08:26.934Z,2.63
2022-09-24T10:10:56.347Z,2.43
2022-09-24T10:13:25.196Z,2.53
2022-09-24T10:15:57.238Z,2.67
2022-09-24T10:18:31.929Z,3.10
2022-09-24T10:21:02.643Z,2.17
2022-09-24T10:23:36.732Z,2.90
2022-09-24T10:26:06.135Z,2.60
2022-09-24T10:28:53.148Z,2.80
2022-09-24T10:31:25.188Z,3.20
2022-09-24T10:33:56.761Z,2.70
2022-09-24T10:36:26.437Z,2.30
2022-09-24T10:39:04.520Z,3.80
2022-09-24T10:41:33.121Z,2.70
2022-09-24T10:44:05.339Z,3.40
2022-09-24T10:47:08.996Z,2.93
2022-09-24T10:49:51.707Z,3.60
2022-09-24T10:52:34.581Z,2.80
2022-09-24T10:55:15.056Z,7.70
2022-09-24T10:57:53.280Z,5.17
2022-09-24T11:00:22.948Z,3.43
2022-09-24T11:03:17.943Z,4.13
2022-09-24T11:05:53.383Z,2.60
2022-09-24T11:08:33.779Z,2.90
2022-09-24T11:11:15.069Z,2.20
2022-09-24T11:13:51.597Z,1.87
2022-09-24T11:16:39.385Z,3.33
2022-09-24T11:19:19.336Z,3.10
2022-09-24T11:22:04.124Z,3.23
2022-09-24T11:24:49.554Z,3.77
2022-09-24T11:27:38.839Z,2.20
2022-09-24T11:30:13.101Z,3.10
2022-09-24T11:32:52.685Z,2.20
2022-09-24T11:35:40.682Z,3.10
2022-09-24T11:38:11.282Z,3.00
2022-09-24T11:40:54.839Z,3.10
2022-09-24T11:43:52.763Z,2.27
2022-09-24T11:46:38.672Z,3.30
2022-09-24T11:49:25.315Z,2.80
2022-09-24T11:52:01.114Z,2.60
2022-09-24T11:54:34.982Z,3.13
2022-09-24T11:57:10.607Z,2.70
2022-09-24T11:59:46.365Z,3.37
2022-09-24T12:02:19.676Z,2.80
2022-09-24T12:04:58.521Z,3.03
2022-09-24T12:07:36.837Z,2.90
2022-09-24T12:10:14.093Z,2.63
2022-09-24T12:12:45.140Z,3.57
2022-09-24T12:15:18.391Z,2.57
2022-09-24T12:17:52.247Z,2.70
2022-09-24T12:20:24.552Z,3.10
2022-09-24T12:22:59.975Z,3.97
2022-09-24T12:25:33.640Z,2.70
2022-09-24T12:28:02.639Z,3.10
2022-09-24T12:30:55.525Z,2.03
2022-09-24T12:33:30.133Z,2.10
2022-09-24T12:36:05.566Z,2.50
2022-09-24T12:38:38.906Z,2.77
2022-09-24T12:41:24.715Z,2.57
2022-09-24T12:43:58.454Z,2.73
2022-09-24T12:46:30.646Z,2.30
2022-09-24T12:48:58.680Z,2.30
2022-09-24T12:51:35.697Z,1.43
2022-09-24T12:54:17.936Z,2.70
2022-09-24T12:56:45.950Z,1.90
2022-09-24T12:59:26.429Z,2.60
2022-09-24T13:01:54.474Z,2.23
2022-09-24T13:04:30.049Z,2.23
2022-09-24T13:06:58.022Z,3.60
2022-09-24T13:09:35.163Z,1.90
2022-09-24T13:12:21.688Z,2.57
2022-09-24T13:14:55.697Z,2.70
2022-09-24T13:17:24.849Z,1.97
2022-09-24T13:19:59.412Z,2.07
2022-09-24T13:22:29.929Z,1.90
2022-09-24T13:25:23.657Z,2.37
2022-09-24T13:28:00.193Z,2.17
2022-09-24T13:30:36.596Z,1.97
2022-09-24T13:33:13.834Z,1.70
2022-09-24T13:35:47.927Z,1.47
2022-09-24T13:38:21.569Z,1.77
2022-09-24T13:40:57.782Z,2.00
2022-09-24T13:43:38.980Z,1.40
2022-09-24T13:46:13.338Z,1.83
2022-09-24T13:48:44.748Z,1.47
2022-09-24T13:51:14.975Z,1.93
2022-09-24T13:53:49.790Z,2.13
2022-09-24T13:56:21.146Z,1.73
2022-09-24T13:58:51.374Z,1.43
2022-09-24T14:01:24.304Z,2.63
2022-09-24T14:03:57.376Z,1.40
2022-09-24T14:06:35.575Z,1.43
2022-09-24T14:09:04.025Z,1.40
2022-09-24T14:11:33.272Z,1.73
2022-09-24T14:14:12.320Z,1.20
2022-09-24T14:16:40.256Z,2.20
2022-09-24T14:19:08.263Z,1.10
2022-09-24T14:21:39.685Z,1.50
2022-09-24T14:24:16.374Z,1.73
2022-09-24T14:26:50.856Z,1.27
2022-09-24T14:29:22.721Z,1.20
2022-09-24T14:31:53.931Z,1.50
2022-09-24T14:34:33.129Z,1.13
2022-09-24T14:37:13.201Z,2.20
2022-09-24T14:39:44.154Z,1.50
2022-09-24T14:42:24.235Z,1.17
2022-09-24T14:44:53.485Z,1.30
2022-09-24T14:47:26.957Z,1.00
2022-09-24T14:49:55.121Z,1.40
2022-09-24T14:52:32.224Z,3.07
2022-09-24T14:55:13.344Z,2.60
2022-09-24T14:57:47.538Z,2.00
2022-09-24T15:00:27.249Z,1.90
2022-09-24T15:03:00.697Z,1.70
2022-09-24T15:05:30.063Z,1.80
2022-09-24T15:08:17.245Z,1.37
2022-09-24T15:10:53.267Z,1.60
2022-09-24T15:13:25.650Z,1.30
2022-09-24T15:16:05.149Z,1.30
2022-09-24T15:18:34.675Z,0.97
2022-09-24T15:21:06.248Z,1.07
2022-09-24T15:23:34.273Z,0.83
2022-09-24T15:26:02.215Z,1.00
2022-09-24T15:28:32.602Z,1.43
2022-09-24T15:31:00.553Z,1.90
2022-09-24T15:33:28.546Z,4.03
2022-09-24T15:35:56.475Z,3.43
2022-09-24T15:38:24.396Z,2.07
2022-09-24T15:40:53.802Z,2.83
2022-09-24T15:43:23.827Z,1.17
2022-09-24T15:45:53.266Z,1.70
2022-09-24T15:48:21.196Z,2.00
2022-09-24T15:50:50.598Z,2.27
2022-09-24T15:53:24.071Z,2.03
2022-09-24T15:55:55.103Z,1.53
2022-09-24T15:58:23.922Z,1.40
2022-09-24T16:00:53.672Z,0.93
2022-09-24T16:03:24.825Z,1.40
2022-09-24T16:05:52.767Z,1.57
2022-09-24T16:08:20.826Z,1.53
2022-09-24T16:10:48.995Z,1.10
2022-09-24T16:13:18.037Z,1.50
2022-09-24T16:15:46.367Z,1.37
2022-09-24T16:18:17.698Z,1.03
2022-09-24T16:20:47.308Z,2.00
2022-09-24T16:23:16.644Z,2.17
2022-09-24T16:25:55.601Z,1.40
2022-09-24T16:28:23.825Z,1.87
2022-09-24T16:30:52.157Z,2.33
2022-09-24T16:33:21.809Z,1.50
2022-09-24T16:35:49.709Z,1.67
2022-09-24T16:38:22.620Z,1.97
2022-09-24T16:40:52.174Z,1.20
2022-09-24T16:43:20.300Z,1.60
2022-09-24T16:45:48.208Z,1.50
2022-09-24T16:48:16.100Z,1.23
2022-09-24T16:50:45.338Z,3.70
2022-09-24T16:53:13.225Z,3.17
2022-09-24T16:55:41.127Z,1.70
2022-09-24T16:58:09.503Z,2.10
2022-09-24T17:00:37.484Z,1.67
2022-09-24T17:03:05.534Z,1.37
2022-09-24T17:05:40.592Z,1.70
2022-09-24T17:08:09.968Z,1.87
2022-09-24T17:10:39.223Z,2.03
2022-09-24T17:13:10.608Z,1.30
2022-09-24T17:15:38.567Z,1.07
2022-09-24T17:18:06.557Z,1.47
2022-09-24T17:20:34.474Z,1.40
2022-09-24T17:23:02.461Z,0.87
2022-09-24T17:25:31.717Z,1.80
2022-09-24T17:27:59.606Z,1.10
2022-09-24T17:30:27.822Z,1.70
2022-09-24T17:32:56.443Z,1.50
2022-09-24T17:35:24.901Z,1.80
2022-09-24T17:37:52.816Z,1.30
2022-09-24T17:40:24.154Z,2.33
2022-09-24T17:42:54.070Z,1.47
2022-09-24T17:45:22.558Z,1.50
2022-09-24T17:48:01.041Z,1.20
2022-09-24T17:50:29.886Z,1.30
2022-09-24T17:52:58.998Z,1.30
2022-09-24T17:55:27.346Z,1.43
2022-09-24T17:57:56.616Z,1.90
2022-09-24T18:00:24.544Z,1.60
2022-09-24T18:02:55.138Z,2.43
2022-09-24T18:05:23.079Z,2.53
2022-09-24T18:07:50.968Z,2.47
2022-09-24T18:10:18.953Z,3.77
2022-09-24T18:12:46.857Z,3.20
2022-09-24T18:15:16.326Z,2.13
2022-09-24T18:17:44.248Z,1.83
2022-09-24T18:20:12.165Z,2.53
2022-09-24T18:22:40.244Z,2.00
2022-09-24T18:25:09.376Z,1.73
2022-09-24T18:27:38.065Z,1.50
2022-09-24T18:30:07.604Z,1.73
2022-09-24T18:32:37.052Z,2.30
2022-09-24T18:35:05.921Z,4.00
2022-09-24T18:37:35.925Z,2.10
2022-09-24T18:40:04.205Z,1.70
2022-09-24T18:42:34.830Z,2.20
2022-09-24T18:45:02.836Z,2.13
2022-09-24T18:47:30.878Z,1.50
2022-09-24T18:50:00.125Z,2.53
2022-09-24T18:52:28.900Z,1.87
2022-09-24T18:54:57.162Z,2.07
2022-09-24T18:57:25.169Z,1.70
2022-09-24T18:59:53.060Z,2.70
2022-09-24T19:02:23.811Z,2.73
2022-09-24T19:04:51.900Z,1.43
2022-09-24T19:07:21.162Z,1.43
2022-09-24T19:09:49.151Z,3.20
2022-09-24T19:12:17.588Z,2.60
2022-09-24T19:14:45.532Z,1.40
2022-09-24T19:17:13.449Z,1.43
2022-09-24T19:19:41.312Z,2.03
2022-09-24T19:22:09.182Z,1.33
2022-09-24T19:24:38.412Z,1.80
2022-09-24T19:27:06.305Z,2.30
2022-09-24T19:29:34.472Z,2.00
2022-09-24T19:32:03.165Z,2.50
2022-09-24T19:34:31.123Z,2.53
2022-09-24T19:36:59.029Z,2.30
2022-09-24T19:39:26.950Z,2.03
2022-09-24T19:41:56.181Z,1.30
2022-09-24T19:44:24.085Z,1.47
2022-09-24T19:46:51.972Z,2.83
2022-09-24T19:49:20.188Z,1.80
2022-09-24T19:51:48.069Z,3.17
2022-09-24T19:54:15.970Z,1.80
2022-09-24T19:56:43.886Z,2.50
2022-09-24T19:59:13.721Z,1.40
2022-09-24T20:01:42.411Z,2.37
2022-09-24T20:04:10.639Z,1.33
2022-09-24T20:06:39.598Z,2.10
2022-09-24T20:09:08.617Z,2.90
2022-09-24T20:11:37.041Z,2.80
2022-09-24T20:14:06.070Z,2.40
2022-09-24T20:16:35.999Z,1.90
2022-09-24T20:19:04.978Z,1.60
2022-09-24T20:21:36.095Z,1.50
2022-09-24T20:24:05.958Z,1.63
2022-09-24T20:26:52.023Z,2.17
2022-09-24T20:29:22.039Z,2.60
2022-09-24T20:31:53.528Z,1.77
2022-09-24T20:34:22.941Z,1.90
2022-09-24T20:36:51.378Z,1.80
2022-09-24T20:39:19.738Z,1.80
2022-09-24T20:41:49.345Z,2.23
2022-09-24T20:44:17.469Z,2.60
2022-09-24T20:46:45.426Z,2.33
2022-09-24T20:49:22.358Z,2.50
2022-09-24T20:51:56.257Z,2.00
2022-09-24T20:54:26.074Z,2.17
2022-09-24T20:56:54.080Z,1.63
2022-09-24T20:59:21.987Z,1.90
2022-09-24T21:01:50.089Z,2.20
2022-09-24T21:04:21.121Z,2.53
2022-09-24T21:06:49.470Z,2.30
2022-09-24T21:09:18.030Z,2.57
2022-09-24T21:11:45.989Z,2.13
2022-09-24T21:14:14.741Z,1.63
2022-09-24T21:16:42.736Z,1.67
2022-09-24T21:19:11.392Z,1.77
2022-09-24T21:21:40.670Z,1.30
2022-09-24T21:24:12.710Z,1.90
2022-09-24T21:26:41.695Z,2.10
2022-09-24T21:29:13.052Z,2.00
2022-09-24T21:31:42.050Z,1.27
2022-09-24T21:34:10.207Z,2.00
2022-09-24T21:36:44.715Z,2.70
2022-09-24T21:39:16.316Z,2.57
2022-09-24T21:41:44.937Z,1.73
2022-09-24T21:44:16.122Z,1.70
2022-09-24T21:46:44.324Z,1.60
2022-09-24T21:49:13.028Z,1.20
2022-09-24T21:51:43.410Z,2.73
2022-09-24T21:54:16.219Z,1.57
2022-09-24T21:56:44.759Z,1.37
2022-09-24T21:59:26.565Z,2.13
2022-09-24T22:01:54.767Z,1.43
2022-09-24T22:04:23.500Z,1.63
2022-09-24T22:06:52.769Z,1.30
2022-09-24T22:09:21.527Z,1.53
2022-09-24T22:11:49.910Z,1.67
2022-09-24T22:14:17.871Z,1.40
2022-09-24T22:16:45.879Z,2.10
2022-09-24T22:19:13.852Z,0.90
2022-09-24T22:21:41.770Z,1.27
2022-09-24T22:24:11.138Z,1.40
2022-09-24T22:26:39.203Z,1.70
2022-09-24T22:29:07.301Z,1.70
2022-09-24T22:31:35.539Z,1.03
2022-09-24T22:34:20.860Z,1.40
2022-09-24T22:36:48.806Z,2.80
2022-09-24T22:39:18.045Z,1.10
2022-09-24T22:41:46.452Z,1.17
2022-09-24T22:44:14.512Z,0.90
2022-09-24T22:46:42.485Z,1.10
2022-09-24T22:49:11.342Z,1.20
2022-09-24T22:51:39.710Z,0.90
2022-09-24T22:54:08.832Z,1.20
2022-09-24T22:56:38.294Z,0.87
2022-09-24T22:59:06.960Z,0.93
2022-09-24T23:01:39.771Z,0.90
2022-09-24T23:04:07.793Z,0.97
2022-09-24T23:06:35.870Z,1.00
2022-09-24T23:09:03.945Z,1.00
2022-09-24T23:11:33.260Z,0.97
2022-09-24T23:14:05.000Z,1.60
2022-09-24T23:16:34.586Z,1.40
2022-09-24T23:19:05.357Z,1.40
2022-09-24T23:21:34.207Z,1.50
2022-09-24T23:24:03.601Z,1.60
2022-09-24T23:26:32.290Z,2.00
2022-09-24T23:29:02.453Z,0.93
2022-09-24T23:31:32.362Z,1.20
2022-09-24T23:34:01.814Z,0.80
2022-09-24T23:36:32.231Z,0.87
2022-09-24T23:39:01.013Z,1.67
2022-09-24T23:41:31.525Z,1.07
2022-09-24T23:43:59.554Z,1.23
2022-09-24T23:46:29.319Z,1.40
2022-09-24T23:48:57.666Z,1.70
2022-09-24T23:51:25.670Z,1.07
2022-09-24T23:53:53.953Z,0.83
2022-09-24T23:56:22.005Z,1.30
2022-09-24T23:58:50.244Z,1.07
